createdAt,value
2018-02-03T00:00:42.571Z,8.73
2018-02-03T00:03:11.437Z,8.82
2018-02-03T00:05:39.567Z,8.90
2018-02-03T00:08:07.803Z,9.57
2018-02-03T00:10:36.693Z,8.82
2018-02-03T00:13:05.563Z,8.63
2018-02-03T00:15:33.777Z,9.75
2018-02-03T00:18:01.889Z,8.95
2018-02-03T00:20:30.051Z,8.50
2018-02-03T00:22:58.165Z,8.70
2018-02-03T00:25:27.035Z,8.77
2018-02-03T00:27:55.157Z,9.18
2018-02-03T00:30:23.319Z,8.05
2018-02-03T00:32:51.484Z,8.18
2018-02-03T00:35:20.363Z,8.57
2018-02-03T00:37:49.243Z,8.93
2018-02-03T00:40:17.349Z,8.63
2018-02-03T00:42:45.507Z,7.70
2018-02-03T00:45:14.387Z,8.00
2018-02-03T00:47:43.259Z,8.68
2018-02-03T00:50:11.563Z,9.00
2018-02-03T00:52:40.559Z,9.43
2018-02-03T00:55:09.435Z,9.48
2018-02-03T00:57:38.311Z,9.63
2018-02-03T01:00:06.445Z,10.00
2018-02-03T01:02:34.587Z,10.30
2018-02-03T01:05:02.698Z,9.73
2018-02-03T01:07:30.816Z,9.43
2018-02-03T01:09:59.719Z,9.10
2018-02-03T01:12:27.897Z,9.88
2018-02-03T01:14:56.067Z,10.30
2018-02-03T01:17:24.195Z,10.75
2018-02-03T01:19:52.368Z,10.93
2018-02-03T01:22:20.539Z,10.80
2018-02-03T01:24:48.660Z,10.90
2018-02-03T01:27:16.771Z,10.43
2018-02-03T01:29:44.899Z,10.60
2018-02-03T01:32:13.784Z,9.85
2018-02-03T01:34:42.659Z,9.63
2018-02-03T01:37:10.777Z,9.10
2018-02-03T01:39:38.892Z,9.95
2018-02-03T01:42:07.010Z,9.10
2018-02-03T01:44:35.127Z,9.27
2018-02-03T01:47:03.243Z,9.57
2018-02-03T01:49:31.390Z,9.63
2018-02-03T01:51:59.586Z,9.73
2018-02-03T01:54:28.480Z,8.75
2018-02-03T01:56:56.646Z,8.73
2018-02-03T01:59:25.526Z,8.60
2018-02-03T02:01:54.462Z,8.20
2018-02-03T02:04:22.604Z,7.80
2018-02-03T02:06:51.488Z,7.97
2018-02-03T02:09:20.374Z,8.00
2018-02-03T02:11:49.274Z,7.45
2018-02-03T02:14:18.169Z,7.57
2018-02-03T02:16:47.054Z,8.00
2018-02-03T02:19:15.942Z,7.57
2018-02-03T02:21:44.823Z,8.27
2018-02-03T02:24:13.716Z,7.65
2018-02-03T02:26:42.748Z,7.87
2018-02-03T02:29:10.826Z,7.50
2018-02-03T02:31:39.169Z,7.50
2018-02-03T02:34:08.043Z,7.90
2018-02-03T02:36:36.910Z,7.87
2018-02-03T02:39:05.219Z,7.53
2018-02-03T02:41:34.150Z,7.60
2018-02-03T02:44:02.254Z,7.37
2018-02-03T02:46:30.366Z,7.90
2018-02-03T02:48:58.632Z,8.32
2018-02-03T02:51:27.524Z,8.32
2018-02-03T02:53:56.398Z,8.80
2018-02-03T02:56:24.498Z,9.40
2018-02-03T02:58:52.630Z,8.88
2018-02-03T03:01:20.834Z,9.57
2018-02-03T03:03:49.102Z,8.55
2018-02-03T03:06:17.976Z,9.07
2018-02-03T03:08:46.088Z,8.75
2018-02-03T03:11:14.245Z,8.98
2018-02-03T03:13:42.386Z,9.88
2018-02-03T03:16:10.511Z,10.15
2018-02-03T03:18:38.661Z,9.40
2018-02-03T03:21:07.548Z,10.52
2018-02-03T03:23:36.441Z,9.98
2018-02-03T03:26:05.334Z,10.18
2018-02-03T03:28:34.219Z,10.20
2018-02-03T03:31:03.092Z,10.25
2018-02-03T03:33:31.292Z,10.80
2018-02-03T03:35:59.421Z,10.88
2018-02-03T03:38:27.503Z,10.20
2018-02-03T03:40:55.703Z,11.15
2018-02-03T03:43:23.829Z,10.55
2018-02-03T03:45:51.951Z,11.10
2018-02-03T03:48:20.067Z,10.63
2018-02-03T03:50:48.203Z,11.02
2018-02-03T03:53:16.351Z,11.75
2018-02-03T03:55:45.235Z,11.63
2018-02-03T03:58:14.117Z,11.65
2018-02-03T04:00:42.231Z,12.20
2018-02-03T04:03:10.359Z,11.30
2018-02-03T04:05:38.493Z,11.32
2018-02-03T04:08:06.595Z,11.70
2018-02-03T04:10:34.707Z,11.65
2018-02-03T04:13:02.831Z,11.80
2018-02-03T04:15:30.935Z,12.75
2018-02-03T04:17:59.823Z,11.82
2018-02-03T04:20:27.954Z,13.55
2018-02-03T04:22:56.283Z,13.00
2018-02-03T04:25:25.159Z,13.50
2018-02-03T04:27:53.351Z,13.27
2018-02-03T04:30:22.247Z,13.90
2018-02-03T04:32:50.381Z,13.70
2018-02-03T04:35:18.487Z,14.38
2018-02-03T04:37:47.370Z,13.98
2018-02-03T04:40:16.263Z,14.60
2018-02-03T04:42:45.155Z,14.63
2018-02-03T04:45:14.045Z,15.65
2018-02-03T04:47:42.910Z,15.50
2018-02-03T04:50:11.068Z,16.65
2018-02-03T04:52:39.198Z,15.98
2018-02-03T04:55:07.316Z,16.30
2018-02-03T04:57:35.426Z,16.98
2018-02-03T05:00:03.558Z,16.02
2018-02-03T05:02:31.682Z,16.87
2018-02-03T05:04:59.790Z,16.92
2018-02-03T05:07:27.906Z,17.52
2018-02-03T05:09:56.798Z,18.15
2018-02-03T05:12:25.682Z,17.35
2018-02-03T05:14:54.586Z,16.90
2018-02-03T05:17:22.729Z,18.08
2018-02-03T05:19:50.932Z,18.50
2018-02-03T05:22:19.108Z,18.58
2018-02-03T05:24:48.004Z,18.42
2018-02-03T05:27:16.180Z,19.25
2018-02-03T05:29:44.284Z,18.62
2018-02-03T05:32:12.408Z,19.80
2018-02-03T05:34:41.330Z,18.98
2018-02-03T05:37:09.439Z,19.00
2018-02-03T05:39:37.541Z,18.80
2018-02-03T05:42:06.446Z,19.20
2018-02-03T05:44:36.354Z,18.15
2018-02-03T05:47:04.466Z,18.17
2018-02-03T05:49:32.580Z,18.20
2018-02-03T05:52:01.488Z,18.45
2018-02-03T05:54:30.560Z,19.23
2018-02-03T05:56:58.663Z,18.90
2018-02-03T05:59:26.795Z,18.50
2018-02-03T06:01:54.924Z,20.10
2018-02-03T06:04:23.050Z,18.58
2018-02-03T06:06:51.169Z,18.85
2018-02-03T06:09:19.271Z,18.35
2018-02-03T06:11:47.425Z,19.27
2018-02-03T06:14:15.661Z,18.98
2018-02-03T06:16:43.771Z,19.08
2018-02-03T06:19:11.882Z,18.42
2018-02-03T06:21:40.002Z,18.50
2018-02-03T06:24:08.166Z,18.15
2018-02-03T06:26:36.331Z,17.75
2018-02-03T06:29:04.494Z,18.00
2018-02-03T06:31:33.376Z,17.52
2018-02-03T06:34:02.280Z,18.00
2018-02-03T06:36:30.455Z,17.90
2018-02-03T06:38:58.567Z,18.50
2018-02-03T06:41:26.825Z,17.80
2018-02-03T06:43:54.943Z,19.08
2018-02-03T06:46:23.055Z,17.85
2018-02-03T06:48:51.188Z,18.92
2018-02-03T06:51:19.299Z,19.00
2018-02-03T06:53:47.461Z,18.23
2018-02-03T06:56:16.177Z,19.05
2018-02-03T06:58:45.145Z,18.42
2018-02-03T07:01:13.569Z,18.15
2018-02-03T07:03:42.565Z,18.40
2018-02-03T07:06:10.826Z,19.17
2018-02-03T07:08:38.955Z,20.10
2018-02-03T07:11:07.837Z,19.85
2018-02-03T07:13:36.811Z,20.40
2018-02-03T07:16:06.431Z,20.20
2018-02-03T07:18:35.317Z,20.25
2018-02-03T07:21:03.475Z,20.08
2018-02-03T07:23:31.797Z,20.48
2018-02-03T07:25:59.903Z,21.15
2018-02-03T07:28:28.021Z,20.30
2018-02-03T07:30:57.052Z,19.77
2018-02-03T07:33:25.138Z,21.25
2018-02-03T07:35:53.339Z,20.62
2018-02-03T07:38:21.643Z,20.75
2018-02-03T07:40:50.510Z,20.62
2018-02-03T07:43:18.643Z,20.98
2018-02-03T07:45:46.810Z,22.15
2018-02-03T07:48:14.951Z,22.35
2018-02-03T07:50:43.846Z,22.75
2018-02-03T07:53:12.023Z,22.20
2018-02-03T07:55:40.195Z,21.60
2018-02-03T07:58:08.314Z,22.83
2018-02-03T08:00:36.427Z,21.48
2018-02-03T08:03:05.319Z,22.42
2018-02-03T08:05:34.237Z,21.92
2018-02-03T08:08:02.350Z,22.17
2018-02-03T08:10:30.467Z,22.25
2018-02-03T08:12:58.662Z,22.37
2018-02-03T08:15:26.796Z,22.27
2018-02-03T08:17:55.682Z,22.50
2018-02-03T08:20:23.827Z,22.55
2018-02-03T08:22:52.320Z,22.58
2018-02-03T08:25:20.482Z,22.80
2018-02-03T08:27:48.595Z,23.55
2018-02-03T08:30:16.865Z,22.05
2018-02-03T08:32:45.750Z,23.92
2018-02-03T08:35:14.746Z,26.27
2018-02-03T08:37:43.711Z,25.52
2018-02-03T08:40:11.770Z,25.35
2018-02-03T08:42:39.886Z,24.80
2018-02-03T08:45:08.927Z,27.13
2018-02-03T08:47:37.050Z,27.75
2018-02-03T08:50:05.968Z,27.95
2018-02-03T08:52:34.058Z,27.45
2018-02-03T08:55:02.308Z,26.75
2018-02-03T08:57:30.408Z,28.00
2018-02-03T08:59:58.538Z,26.40
2018-02-03T09:02:26.678Z,28.45
2018-02-03T09:04:54.809Z,27.67
2018-02-03T09:07:22.922Z,27.65
2018-02-03T09:09:51.058Z,27.42
2018-02-03T09:12:19.169Z,26.52
2018-02-03T09:14:47.568Z,26.25
2018-02-03T09:17:16.508Z,27.13
2018-02-03T09:19:44.642Z,28.40
2018-02-03T09:22:12.920Z,27.50
2018-02-03T09:24:41.125Z,28.33
2018-02-03T09:27:09.234Z,26.08
2018-02-03T09:29:37.972Z,28.58
2018-02-03T09:32:06.297Z,27.67
2018-02-03T09:34:34.623Z,27.08
2018-02-03T09:37:02.780Z,26.90
2018-02-03T09:39:30.942Z,25.08
2018-02-03T09:41:59.824Z,25.35
2018-02-03T09:44:28.828Z,25.17
2018-02-03T09:46:57.436Z,26.50
2018-02-03T09:49:25.696Z,26.92
2018-02-03T09:51:53.848Z,26.08
2018-02-03T09:54:22.738Z,24.30
2018-02-03T09:56:51.648Z,24.65
2018-02-03T09:59:19.761Z,24.95
2018-02-03T10:01:47.897Z,23.08
2018-02-03T10:04:16.766Z,21.52
2018-02-03T10:06:45.697Z,20.62
2018-02-03T10:09:13.840Z,20.80
2018-02-03T10:11:42.889Z,20.25
2018-02-03T10:14:11.032Z,20.67
2018-02-03T10:16:39.156Z,20.65
2018-02-03T10:19:07.283Z,20.20
2018-02-03T10:21:35.523Z,20.20
2018-02-03T10:24:05.271Z,19.85
2018-02-03T10:26:33.439Z,19.87
2018-02-03T10:29:01.584Z,20.25
2018-02-03T10:31:30.511Z,18.83
2018-02-03T10:33:58.907Z,19.00
2018-02-03T10:36:27.399Z,17.92
2018-02-03T10:38:55.563Z,17.17
2018-02-03T10:41:23.783Z,18.50
2018-02-03T10:43:52.155Z,16.40
2018-02-03T10:46:21.073Z,16.30
2018-02-03T10:48:49.183Z,16.05
2018-02-03T10:51:17.355Z,15.73
2018-02-03T10:53:45.701Z,16.60
2018-02-03T10:56:13.827Z,17.87
2018-02-03T10:58:42.711Z,16.65
2018-02-03T11:01:11.586Z,16.42
2018-02-03T11:03:40.614Z,17.62
2018-02-03T11:06:09.547Z,17.98
2018-02-03T11:08:37.660Z,17.50
2018-02-03T11:11:05.859Z,17.20
2018-02-03T11:13:33.989Z,17.02
2018-02-03T11:16:02.115Z,16.60
2018-02-03T11:18:30.291Z,16.37
2018-02-03T11:20:58.398Z,16.20
2018-02-03T11:23:26.599Z,15.90
2018-02-03T11:25:54.795Z,14.43
2018-02-03T11:28:22.923Z,13.55
2018-02-03T11:30:51.095Z,14.35
2018-02-03T11:33:19.414Z,13.23
2018-02-03T11:35:47.597Z,10.85
2018-02-03T11:38:15.699Z,9.90
2018-02-03T11:40:43.839Z,9.05
2018-02-03T11:43:12.015Z,8.68
2018-02-03T11:45:40.142Z,8.57
2018-02-03T11:48:08.367Z,8.23
2018-02-03T11:50:36.482Z,8.13
2018-02-03T11:53:04.639Z,8.52
2018-02-03T11:55:32.790Z,7.00
2018-02-03T11:58:00.899Z,7.82
2018-02-03T12:00:29.023Z,8.48
2018-02-03T12:02:58.112Z,8.82
2018-02-03T12:05:26.999Z,11.43
2018-02-03T12:07:55.902Z,12.30
2018-02-03T12:10:24.041Z,12.40
2018-02-03T12:12:52.490Z,13.25
2018-02-03T12:15:20.626Z,13.15
2018-02-03T12:17:48.796Z,13.98
2018-02-03T12:20:16.908Z,14.23
2018-02-03T12:22:45.138Z,16.23
2018-02-03T12:25:14.072Z,16.08
2018-02-03T12:27:42.198Z,17.65
2018-02-03T12:30:11.190Z,18.42
2018-02-03T12:32:40.060Z,20.35
2018-02-03T12:35:08.220Z,22.08
2018-02-03T12:37:37.280Z,20.52
2018-02-03T12:40:05.554Z,22.02
2018-02-03T12:42:33.646Z,22.30
2018-02-03T12:45:01.810Z,23.05
2018-02-03T12:47:29.932Z,23.70
2018-02-03T12:49:58.834Z,22.00
2018-02-03T12:52:26.964Z,23.02
2018-02-03T12:54:55.076Z,22.58
2018-02-03T12:57:24.024Z,21.70
2018-02-03T12:59:52.134Z,22.33
2018-02-03T13:02:21.020Z,21.87
2018-02-03T13:04:50.026Z,22.55
2018-02-03T13:07:18.195Z,22.27
2018-02-03T13:09:47.083Z,22.73
2018-02-03T13:12:16.006Z,23.08
2018-02-03T13:14:44.179Z,22.77
2018-02-03T13:17:12.250Z,21.87
2018-02-03T13:19:40.364Z,20.92
2018-02-03T13:22:08.540Z,18.62
2018-02-03T13:24:36.688Z,16.23
2018-02-03T13:27:04.809Z,14.13
2018-02-03T13:29:32.950Z,13.73
2018-02-03T13:32:01.065Z,11.57
2018-02-03T13:34:29.247Z,11.18
2018-02-03T13:36:57.403Z,11.88
2018-02-03T13:39:25.580Z,11.38
2018-02-03T13:41:54.456Z,10.23
2018-02-03T13:44:23.567Z,10.27
2018-02-03T13:46:51.703Z,11.15
2018-02-03T13:49:19.813Z,11.70
2018-02-03T13:51:47.935Z,10.75
2018-02-03T13:54:16.124Z,9.70
2018-02-03T13:56:44.237Z,7.80
2018-02-03T13:59:12.340Z,8.07
2018-02-03T14:01:40.567Z,8.27
2018-02-03T14:04:09.463Z,8.73
2018-02-03T14:06:37.595Z,9.05
2018-02-03T14:09:05.699Z,8.85
2018-02-03T14:11:34.624Z,8.45
2018-02-03T14:14:03.503Z,8.63
2018-02-03T14:16:31.623Z,8.43
2018-02-03T14:18:59.831Z,9.10
2018-02-03T14:21:28.729Z,10.07
2018-02-03T14:24:03.043Z,9.73
2018-02-03T14:26:31.979Z,10.85
2018-02-03T14:29:00.113Z,10.63
2018-02-03T14:31:28.976Z,10.38
2018-02-03T14:33:57.091Z,10.68
2018-02-03T14:36:25.255Z,10.20
2018-02-03T14:38:53.378Z,9.75
2018-02-03T14:41:21.488Z,10.70
2018-02-03T14:43:49.603Z,11.52
2018-02-03T14:46:17.775Z,10.93
2018-02-03T14:48:45.919Z,11.02
2018-02-03T14:51:14.828Z,11.20
2018-02-03T14:53:43.683Z,11.30
2018-02-03T14:56:11.834Z,11.43
2018-02-03T14:58:39.968Z,11.50
2018-02-03T15:01:08.067Z,12.02
2018-02-03T15:03:36.281Z,12.15
2018-02-03T15:06:05.155Z,12.27
2018-02-03T15:08:34.167Z,12.23
2018-02-03T15:11:02.290Z,12.43
2018-02-03T15:13:30.414Z,12.45
2018-02-03T15:15:58.687Z,12.23
2018-02-03T15:18:26.795Z,12.95
2018-02-03T15:20:54.904Z,12.77
2018-02-03T15:23:23.031Z,12.55
2018-02-03T15:25:51.147Z,13.50
2018-02-03T15:28:19.325Z,14.20
2018-02-03T15:30:47.514Z,14.15
2018-02-03T15:33:16.393Z,15.70
2018-02-03T15:35:45.427Z,15.38
2018-02-03T15:38:13.574Z,15.82
2018-02-03T15:40:41.780Z,15.93
2018-02-03T15:43:09.913Z,16.58
2018-02-03T15:45:38.856Z,15.70
2018-02-03T15:48:07.022Z,15.75
2018-02-03T15:50:35.222Z,15.52
2018-02-03T15:53:03.294Z,14.48
2018-02-03T15:55:32.246Z,14.10
2018-02-03T15:58:00.410Z,14.75
2018-02-03T16:00:28.518Z,15.07
2018-02-03T16:02:56.628Z,14.87
2018-02-03T16:05:25.517Z,16.27
2018-02-03T16:07:54.444Z,16.33
2018-02-03T16:10:22.595Z,16.17
2018-02-03T16:12:51.520Z,15.52
2018-02-03T16:15:19.700Z,16.55
2018-02-03T16:17:47.858Z,16.17
2018-02-03T16:20:16.030Z,16.83
2018-02-03T16:22:44.167Z,16.55
2018-02-03T16:25:13.065Z,15.93
2018-02-03T16:27:42.006Z,16.55
2018-02-03T16:32:37.370Z,17.87
2018-02-03T16:35:06.258Z,17.00
2018-02-03T16:37:35.166Z,17.55
2018-02-03T16:40:03.269Z,17.83
2018-02-03T16:42:31.432Z,19.65
2018-02-03T16:47:34.004Z,18.73
2018-02-03T16:50:02.136Z,19.70
2018-02-03T16:52:30.239Z,19.50
2018-02-03T16:54:59.172Z,18.77
2018-02-03T16:57:27.310Z,18.85
2018-02-03T16:59:56.208Z,19.60
2018-02-03T17:02:24.372Z,18.92
2018-02-03T17:04:52.492Z,19.48
2018-02-03T17:07:20.611Z,20.27
2018-02-03T17:09:49.709Z,19.45
2018-02-03T17:12:17.836Z,19.52
2018-02-03T17:14:46.005Z,19.85
2018-02-03T17:17:14.139Z,18.55
2018-02-03T17:19:42.401Z,17.90
2018-02-03T17:22:11.336Z,17.40
2018-02-03T17:24:39.455Z,16.55
2018-02-03T17:27:08.354Z,16.67
2018-02-03T17:29:37.289Z,16.15
2018-02-03T17:32:05.508Z,16.75
2018-02-03T17:34:34.520Z,17.77
2018-02-03T17:37:08.272Z,16.87
2018-02-03T17:39:36.383Z,18.00
2018-02-03T17:42:05.279Z,18.23
2018-02-03T17:44:34.173Z,19.17
2018-02-03T17:47:08.899Z,18.58
2018-02-03T17:49:37.007Z,19.83
2018-02-03T17:52:05.146Z,19.33
2018-02-03T17:54:33.278Z,17.90
2018-02-03T17:57:07.042Z,17.42
2018-02-03T17:59:35.175Z,18.05
2018-02-03T18:02:03.307Z,18.23
2018-02-03T18:04:31.465Z,17.98
2018-02-03T18:07:05.600Z,19.23
2018-02-03T18:09:33.766Z,19.35
2018-02-03T18:12:01.926Z,20.52
2018-02-03T18:14:30.037Z,20.10
2018-02-03T18:16:58.168Z,21.90
2018-02-03T18:19:26.289Z,20.77
2018-02-03T18:21:54.483Z,20.25
2018-02-03T18:24:23.374Z,21.17
2018-02-03T18:26:52.379Z,22.52
2018-02-03T18:29:20.511Z,21.40
2018-02-03T18:31:48.632Z,23.52
2018-02-03T18:34:16.766Z,22.85
2018-02-03T18:36:44.881Z,22.73
2018-02-03T18:39:13.139Z,23.48
2018-02-03T18:41:41.307Z,22.35
2018-02-03T18:44:10.227Z,24.25
2018-02-03T18:46:38.351Z,25.00
2018-02-03T18:49:06.653Z,23.05
2018-02-03T18:51:34.768Z,23.42
2018-02-03T18:54:02.889Z,23.45
2018-02-03T18:56:31.788Z,21.77
2018-02-03T18:58:59.906Z,22.33
2018-02-03T19:01:28.031Z,22.67
2018-02-03T19:03:56.194Z,20.70
2018-02-03T19:06:25.083Z,19.20
2018-02-03T19:08:54.021Z,20.20
2018-02-03T19:11:22.132Z,20.50
2018-02-03T19:13:50.233Z,20.30
2018-02-03T19:16:18.607Z,21.02
2018-02-03T19:18:46.784Z,20.08
2018-02-03T19:21:14.947Z,19.52
2018-02-03T19:23:43.132Z,18.08
2018-02-03T19:26:11.254Z,19.62
2018-02-03T19:28:39.378Z,20.50
2018-02-03T19:31:07.510Z,20.08
2018-02-03T19:33:35.682Z,20.17
2018-02-03T19:36:03.798Z,19.80
2018-02-03T19:38:31.948Z,19.45
2018-02-03T19:41:01.054Z,19.73
2018-02-03T19:43:29.168Z,19.73
2018-02-03T19:45:57.288Z,19.23
2018-02-03T19:48:26.394Z,21.35
2018-02-03T19:50:54.510Z,20.55
2018-02-03T19:53:22.614Z,19.75
2018-02-03T19:55:51.554Z,20.45
2018-02-03T19:58:19.806Z,18.85
2018-02-03T20:00:47.928Z,18.48
2018-02-03T20:03:16.040Z,18.98
2018-02-03T20:05:44.942Z,19.60
2018-02-03T20:08:13.834Z,18.33
2018-02-03T20:10:41.956Z,19.10
2018-02-03T20:13:10.172Z,18.10
2018-02-03T20:15:39.052Z,18.95
2018-02-03T20:18:07.966Z,17.95
2018-02-03T20:20:36.085Z,18.50
2018-02-03T20:23:04.197Z,19.42
2018-02-03T20:25:32.580Z,19.70
2018-02-03T20:28:00.854Z,20.05
2018-02-03T20:30:28.965Z,19.75
2018-02-03T20:32:57.076Z,18.98
2018-02-03T20:35:25.243Z,19.73
2018-02-03T20:37:53.442Z,19.27
2018-02-03T20:40:22.319Z,19.83
2018-02-03T20:42:51.230Z,17.83
2018-02-03T20:45:19.407Z,18.73
2018-02-03T20:47:47.554Z,19.90
2018-02-03T20:50:16.427Z,21.77
2018-02-03T20:52:44.543Z,20.02
2018-02-03T20:55:12.669Z,21.02
2018-02-03T20:57:40.789Z,21.55
2018-02-03T21:00:08.912Z,21.15
2018-02-03T21:02:37.079Z,20.92
2018-02-03T21:05:05.207Z,21.65
2018-02-03T21:07:33.343Z,20.33
2018-02-03T21:10:01.468Z,20.27
2018-02-03T21:12:29.575Z,21.67
2018-02-03T21:14:57.891Z,20.05
2018-02-03T21:17:26.003Z,22.00
2018-02-03T21:19:54.251Z,21.17
2018-02-03T21:22:22.412Z,21.52
2018-02-03T21:24:50.535Z,20.73
2018-02-03T21:27:18.653Z,21.02
2018-02-03T21:29:47.547Z,21.25
2018-02-03T21:32:15.675Z,23.60
2018-02-03T21:34:43.779Z,21.95
2018-02-03T21:37:12.681Z,21.60
2018-02-03T21:39:40.814Z,21.87
2018-02-03T21:42:08.927Z,21.87
2018-02-03T21:44:37.041Z,22.85
2018-02-03T21:47:05.215Z,22.40
2018-02-03T21:49:33.367Z,21.73
2018-02-03T21:52:01.506Z,20.73
2018-02-03T21:54:29.694Z,21.55
2018-02-03T21:56:57.859Z,19.77
2018-02-03T21:59:25.974Z,19.87
2018-02-03T22:01:54.090Z,20.37
2018-02-03T22:04:22.987Z,19.70
2018-02-03T22:06:51.895Z,19.90
2018-02-03T22:09:20.058Z,19.33
2018-02-03T22:11:48.175Z,20.60
2018-02-03T22:14:16.274Z,19.02
2018-02-03T22:16:44.410Z,20.42
2018-02-03T22:19:12.527Z,21.08
2018-02-03T22:21:41.416Z,21.73
2018-02-03T22:24:09.542Z,20.30
2018-02-03T22:26:37.662Z,20.55
2018-02-03T22:29:06.674Z,21.35
2018-02-03T22:31:34.787Z,21.12
2018-02-03T22:34:02.903Z,21.20
2018-02-03T22:36:31.798Z,20.77
2018-02-03T22:39:00.698Z,22.05
2018-02-03T22:41:28.808Z,22.35
2018-02-03T22:43:56.930Z,22.95
2018-02-03T22:46:25.846Z,22.67
2018-02-03T22:48:53.959Z,23.67
2018-02-03T22:51:22.075Z,24.90
2018-02-03T22:53:51.054Z,23.90
2018-02-03T22:56:19.938Z,23.87
2018-02-03T22:58:48.138Z,24.45
2018-02-03T23:01:17.051Z,26.33
2018-02-03T23:03:45.163Z,25.52
2018-02-03T23:06:13.366Z,25.58
2018-02-03T23:08:41.544Z,26.33
2018-02-03T23:11:09.660Z,27.05
2018-02-03T23:13:37.776Z,27.60
2018-02-03T23:16:06.772Z,27.80
2018-02-03T23:18:35.870Z,28.33
2018-02-03T23:21:04.746Z,30.33
2018-02-03T23:23:33.627Z,29.48
2018-02-03T23:26:01.758Z,29.15
2018-02-03T23:28:29.882Z,28.60
2018-02-03T23:30:58.774Z,30.77
2018-02-03T23:33:27.890Z,31.10
2018-02-03T23:35:56.004Z,31.48
2018-02-03T23:38:24.128Z,31.17
2018-02-03T23:40:53.014Z,33.03
2018-02-03T23:43:21.890Z,30.85
2018-02-03T23:45:50.796Z,32.15
2018-02-03T23:48:18.975Z,30.95
2018-02-03T23:50:47.112Z,31.60
2018-02-03T23:53:15.313Z,33.38
2018-02-03T23:55:44.196Z,32.00
2018-02-03T23:58:13.105Z,33.30
